createdAt,value
2018-02-07T00:00:00.455Z,-1.20
2018-02-07T00:02:28.001Z,-1.20
2018-02-07T00:04:55.571Z,-1.10
2018-02-07T00:07:23.115Z,-1.10
2018-02-07T00:09:50.677Z,-1.20
2018-02-07T00:12:18.221Z,-1.20
2018-02-07T00:14:45.790Z,-1.10
2018-02-07T00:17:13.338Z,-1.20
2018-02-07T00:19:40.971Z,-1.20
2018-02-07T00:22:09.294Z,-1.20
2018-02-07T00:24:36.845Z,-1.30
2018-02-07T00:27:04.415Z,-1.10
2018-02-07T00:29:32.091Z,-1.00
2018-02-07T00:32:00.116Z,-1.10
2018-02-07T00:34:27.653Z,-1.00
2018-02-07T00:36:55.998Z,-0.90
2018-02-07T00:39:23.551Z,-1.00
2018-02-07T00:41:51.128Z,-1.00
2018-02-07T00:44:18.666Z,-1.00
2018-02-07T00:46:46.235Z,-1.00
2018-02-07T00:49:13.785Z,-1.00
2018-02-07T00:51:41.354Z,-1.00
2018-02-07T00:54:08.904Z,-1.00
2018-02-07T00:56:36.482Z,-0.90
2018-02-07T00:59:04.023Z,-0.90
2018-02-07T01:01:31.634Z,-0.90
2018-02-07T01:03:59.960Z,-0.90
2018-02-07T01:06:27.693Z,-0.90
2018-02-07T01:08:56.226Z,-0.70
2018-02-07T01:11:23.880Z,-0.80
2018-02-07T01:13:51.457Z,-0.80
2018-02-07T01:16:19.809Z,-0.80
2018-02-07T01:18:47.341Z,-0.90
2018-02-07T01:21:14.906Z,-0.90
2018-02-07T01:23:42.451Z,-1.00
2018-02-07T01:26:10.026Z,-1.00
2018-02-07T01:28:37.810Z,-1.00
2018-02-07T01:31:05.390Z,-1.10
2018-02-07T01:33:32.930Z,-1.20
2018-02-07T01:36:00.486Z,-1.20
2018-02-07T01:38:28.034Z,-1.20
2018-02-07T01:40:56.387Z,-1.20
2018-02-07T01:43:24.692Z,-1.20
2018-02-07T01:45:52.376Z,-1.20
2018-02-07T01:48:20.690Z,-1.40
2018-02-07T01:50:48.285Z,-1.40
2018-02-07T01:53:15.851Z,-1.50
2018-02-07T01:55:43.426Z,-1.50
2018-02-07T01:58:10.990Z,-1.50
2018-02-07T02:00:38.570Z,-1.60
2018-02-07T02:03:06.850Z,-1.60
2018-02-07T02:05:34.425Z,-1.60
2018-02-07T02:08:01.969Z,-1.70
2018-02-07T02:10:29.537Z,-1.70
2018-02-07T02:12:57.077Z,-1.70
2018-02-07T02:15:24.774Z,-1.70
2018-02-07T02:17:53.089Z,-1.80
2018-02-07T02:20:20.653Z,-1.80
2018-02-07T02:22:48.194Z,-1.80
2018-02-07T02:25:15.769Z,-1.70
2018-02-07T02:27:43.307Z,-1.50
2018-02-07T02:30:11.648Z,-1.40
2018-02-07T02:32:39.205Z,-1.40
2018-02-07T02:35:06.758Z,-1.40
2018-02-07T02:37:34.322Z,-1.40
2018-02-07T02:40:01.872Z,-1.50
2018-02-07T02:42:29.433Z,-1.40
2018-02-07T02:44:56.970Z,-1.50
2018-02-07T02:47:24.523Z,-1.50
2018-02-07T02:49:52.062Z,-1.70
2018-02-07T02:52:20.379Z,-1.80
2018-02-07T02:54:47.917Z,-1.80
2018-02-07T02:57:15.484Z,-1.90
2018-02-07T02:59:43.251Z,-1.80
2018-02-07T03:02:10.935Z,-1.90
2018-02-07T03:04:38.639Z,-1.90
2018-02-07T03:07:06.970Z,-1.80
2018-02-07T03:09:34.509Z,-1.80
2018-02-07T03:12:02.076Z,-1.80
2018-02-07T03:14:29.617Z,-1.90
2018-02-07T03:16:57.201Z,-2.00
2018-02-07T03:19:24.797Z,-2.10
2018-02-07T03:21:52.436Z,-2.10
2018-02-07T03:24:20.834Z,-2.00
2018-02-07T03:26:48.407Z,-2.00
2018-02-07T03:29:16.078Z,-2.00
2018-02-07T03:31:43.927Z,-1.90
2018-02-07T03:34:11.806Z,-2.00
2018-02-07T03:36:40.159Z,-2.20
2018-02-07T03:39:07.743Z,-2.20
2018-02-07T03:41:35.495Z,-2.30
2018-02-07T03:44:03.064Z,-2.40
2018-02-07T03:46:30.678Z,-2.40
2018-02-07T03:48:58.220Z,-2.40
2018-02-07T03:51:25.792Z,-2.50
2018-02-07T03:53:53.337Z,-2.50
2018-02-07T03:56:20.906Z,-2.60
2018-02-07T03:58:48.439Z,-2.70
2018-02-07T04:01:15.999Z,-2.70
2018-02-07T04:03:44.314Z,-2.40
2018-02-07T04:06:11.878Z,-2.40
2018-02-07T04:08:39.428Z,-2.50
2018-02-07T04:11:06.994Z,-2.50
2018-02-07T04:13:34.529Z,-2.50
2018-02-07T04:16:02.857Z,-2.50
2018-02-07T04:18:30.401Z,-2.60
2018-02-07T04:20:57.973Z,-2.50
2018-02-07T04:23:25.505Z,-2.50
2018-02-07T04:25:53.066Z,-2.50
2018-02-07T04:28:20.614Z,-2.60
2018-02-07T04:30:48.175Z,-2.50
2018-02-07T04:33:15.715Z,-2.50
2018-02-07T04:35:44.054Z,-2.50
2018-02-07T04:38:11.598Z,-2.50
2018-02-07T04:40:39.134Z,-2.60
2018-02-07T04:43:06.707Z,-2.70
2018-02-07T04:45:34.241Z,-2.70
2018-02-07T04:48:02.576Z,-2.40
2018-02-07T04:50:30.130Z,-2.40
2018-02-07T04:52:57.697Z,-2.50
2018-02-07T04:55:25.232Z,-2.50
2018-02-07T04:57:52.798Z,-2.30
2018-02-07T05:00:20.342Z,-2.40
2018-02-07T05:02:47.912Z,-2.20
2018-02-07T05:05:15.460Z,-2.30
2018-02-07T05:07:43.027Z,-2.30
2018-02-07T05:10:10.569Z,-2.30
2018-02-07T05:12:38.131Z,-2.30
2018-02-07T05:15:05.678Z,-2.10
2018-02-07T05:17:34.008Z,-2.40
2018-02-07T05:20:01.542Z,-2.40
2018-02-07T05:22:29.107Z,-2.40
2018-02-07T05:24:56.644Z,-2.40
2018-02-07T05:27:24.206Z,-2.40
2018-02-07T05:29:51.755Z,-2.50
2018-02-07T05:32:20.087Z,-2.50
2018-02-07T05:34:47.624Z,-2.50
2018-02-07T05:37:15.194Z,-2.60
2018-02-07T05:39:42.750Z,-2.60
2018-02-07T05:42:10.330Z,-2.80
2018-02-07T05:44:37.874Z,-2.70
2018-02-07T05:47:05.442Z,-2.70
2018-02-07T05:49:32.994Z,-2.90
2018-02-07T05:52:00.561Z,-3.00
2018-02-07T05:54:28.102Z,-2.90
2018-02-07T05:56:55.668Z,-2.90
2018-02-07T05:59:23.215Z,-2.80
2018-02-07T06:01:50.783Z,-2.90
2018-02-07T06:04:18.321Z,-2.90
2018-02-07T06:06:45.888Z,-2.90
2018-02-07T06:09:13.438Z,-2.80
2018-02-07T06:11:41.009Z,-2.70
2018-02-07T06:14:08.546Z,-2.70
2018-02-07T06:16:36.129Z,-2.70
2018-02-07T06:19:03.678Z,-2.60
2018-02-07T06:21:31.238Z,-2.70
2018-02-07T06:23:58.781Z,-2.70
2018-02-07T06:26:27.118Z,-2.80
2018-02-07T06:28:54.658Z,-2.90
2018-02-07T06:52:39.384Z,-3.30
2018-02-07T06:55:06.924Z,-3.30
2018-02-07T06:57:34.486Z,-3.30
2018-02-07T07:00:02.022Z,-3.20
2018-02-07T07:02:29.586Z,-3.10
2018-02-07T07:04:57.131Z,-3.10
2018-02-07T07:07:25.457Z,-3.00
2018-02-07T07:09:53.004Z,-3.10
2018-02-07T07:12:20.567Z,-2.90
2018-02-07T07:14:48.118Z,-2.90
2018-02-07T07:17:15.699Z,-2.90
2018-02-07T07:19:43.264Z,-2.90
2018-02-07T07:22:10.831Z,-2.90
2018-02-07T07:24:38.382Z,-2.80
2018-02-07T07:27:05.951Z,-2.90
2018-02-07T07:29:33.495Z,-2.80
2018-02-07T07:32:01.054Z,-2.80
2018-02-07T07:34:28.607Z,-2.80
2018-02-07T07:36:56.182Z,-2.70
2018-02-07T07:39:23.722Z,-2.70
2018-02-07T07:41:51.294Z,-2.70
2018-02-07T07:44:19.613Z,-2.50
2018-02-07T07:46:47.947Z,-2.40
2018-02-07T07:49:15.493Z,-2.40
2018-02-07T07:51:43.054Z,-2.30
2018-02-07T07:54:10.602Z,-2.40
2018-02-07T07:56:38.174Z,-2.40
2018-02-07T07:59:05.713Z,-2.40
2018-02-07T08:01:33.284Z,-2.30
2018-02-07T08:04:00.884Z,-2.20
2018-02-07T08:06:28.479Z,-2.10
2018-02-07T08:08:56.819Z,-2.10
2018-02-07T08:11:24.369Z,-2.10
2018-02-07T08:13:51.944Z,-2.10
2018-02-07T08:16:19.508Z,-2.00
2018-02-07T08:18:47.883Z,-1.90
2018-02-07T08:21:15.430Z,-2.00
2018-02-07T08:23:42.993Z,-1.80
2018-02-07T08:26:10.550Z,-1.80
2018-02-07T08:28:38.126Z,-1.70
2018-02-07T08:31:05.670Z,-1.60
2018-02-07T08:33:33.238Z,-1.60
2018-02-07T08:36:00.778Z,-1.70
2018-02-07T08:38:28.350Z,-1.70
2018-02-07T08:40:55.893Z,-1.60
2018-02-07T08:43:23.458Z,-1.70
2018-02-07T08:45:50.997Z,-1.70
2018-02-07T08:48:18.569Z,-1.60
2018-02-07T08:50:46.306Z,-1.50
2018-02-07T08:53:13.987Z,-1.50
2018-02-07T08:55:42.357Z,-1.40
2018-02-07T08:58:10.039Z,-1.40
2018-02-07T09:00:37.582Z,-1.40
2018-02-07T09:03:05.378Z,-1.30
2018-02-07T09:05:32.926Z,-1.20
2018-02-07T09:08:00.491Z,-1.10
2018-02-07T09:10:28.026Z,-1.10
2018-02-07T09:12:55.590Z,-1.20
2018-02-07T09:15:23.386Z,-1.00
2018-02-07T09:17:51.206Z,-0.90
2018-02-07T09:20:18.752Z,-0.90
2018-02-07T09:22:47.129Z,-0.70
2018-02-07T09:25:15.438Z,-0.70
2018-02-07T09:27:43.085Z,-0.70
2018-02-07T09:30:10.623Z,-0.70
2018-02-07T09:32:38.953Z,-0.70
2018-02-07T09:35:06.494Z,-0.70
2018-02-07T09:37:34.071Z,-0.60
2018-02-07T09:40:01.727Z,-0.60
2018-02-07T09:42:29.290Z,-0.50
2018-02-07T09:44:56.834Z,-0.30
2018-02-07T09:47:24.395Z,-0.10
2018-02-07T09:49:51.977Z,-0.10
2018-02-07T09:52:19.542Z,0.00
2018-02-07T09:54:47.133Z,-0.10
2018-02-07T09:57:14.737Z,-0.10
2018-02-07T09:59:42.279Z,0.00
2018-02-07T10:02:10.629Z,0.10
2018-02-07T10:04:39.001Z,0.10
2018-02-07T10:07:06.544Z,0.10
2018-02-07T10:09:34.085Z,0.00
2018-02-07T10:12:01.627Z,0.10
2018-02-07T10:14:29.193Z,0.30
2018-02-07T10:16:56.730Z,0.40
2018-02-07T10:19:25.159Z,0.60
2018-02-07T10:21:52.697Z,0.60
2018-02-07T10:24:20.246Z,0.60
2018-02-07T10:26:47.793Z,0.40
2018-02-07T10:29:15.376Z,0.50
2018-02-07T10:31:42.933Z,0.50
2018-02-07T10:34:10.511Z,0.60
2018-02-07T10:36:38.810Z,0.70
2018-02-07T10:39:06.374Z,0.70
2018-02-07T10:41:33.910Z,0.50
2018-02-07T10:44:01.506Z,0.50
2018-02-07T10:46:29.038Z,0.60
2018-02-07T10:48:56.602Z,0.80
2018-02-07T10:51:24.165Z,0.80
2018-02-07T10:53:51.807Z,0.80
2018-02-07T10:56:19.370Z,0.70
2018-02-07T10:58:47.082Z,0.60
2018-02-07T11:01:14.642Z,0.70
2018-02-07T11:03:43.010Z,0.70
2018-02-07T11:06:10.575Z,0.70
2018-02-07T11:08:38.106Z,0.70
2018-02-07T11:11:05.663Z,0.80
2018-02-07T11:13:33.410Z,1.10
2018-02-07T11:16:01.225Z,1.10
2018-02-07T11:18:29.546Z,1.10
2018-02-07T11:20:57.097Z,1.20
2018-02-07T11:23:24.637Z,1.10
2018-02-07T11:25:52.958Z,1.20
2018-02-07T11:28:20.554Z,1.20
2018-02-07T11:30:48.114Z,1.30
2018-02-07T11:33:15.691Z,1.40
2018-02-07T11:35:43.273Z,1.50
2018-02-07T11:38:10.807Z,1.50
2018-02-07T11:40:38.363Z,1.60
2018-02-07T11:43:05.895Z,1.60
2018-02-07T11:45:33.486Z,1.60
2018-02-07T11:48:01.014Z,1.50
2018-02-07T11:50:28.573Z,1.70
2018-02-07T11:52:56.106Z,1.70
2018-02-07T11:55:23.633Z,1.80
2018-02-07T11:57:51.962Z,2.10
2018-02-07T12:00:19.509Z,2.10
2018-02-07T12:02:47.129Z,2.00
2018-02-07T12:05:15.427Z,2.20
2018-02-07T12:07:42.981Z,2.20
2018-02-07T12:10:10.532Z,2.00
2018-02-07T12:12:38.859Z,1.80
2018-02-07T12:15:06.406Z,1.80
2018-02-07T12:17:33.958Z,1.90
2018-02-07T12:20:01.490Z,2.00
2018-02-07T12:22:29.818Z,2.00
2018-02-07T12:24:58.122Z,2.00
2018-02-07T12:27:25.682Z,2.00
2018-02-07T12:29:53.990Z,2.20
2018-02-07T12:32:22.323Z,2.10
2018-02-07T12:34:49.841Z,2.10
2018-02-07T12:37:17.374Z,2.00
2018-02-07T12:39:45.704Z,2.00
2018-02-07T12:42:13.250Z,2.00
2018-02-07T12:44:40.798Z,2.10
2018-02-07T12:47:08.322Z,2.40
2018-02-07T12:49:36.673Z,2.20
2018-02-07T12:52:04.200Z,2.20
2018-02-07T12:54:31.754Z,2.20
2018-02-07T12:56:59.290Z,2.40
2018-02-07T12:59:27.617Z,2.60
2018-02-07T13:01:55.917Z,2.60
2018-02-07T13:04:23.497Z,2.60
2018-02-07T13:06:51.090Z,2.80
2018-02-07T13:09:19.385Z,2.70
2018-02-07T13:11:46.916Z,2.70
2018-02-07T13:14:14.464Z,2.80
2018-02-07T13:16:42.758Z,2.90
2018-02-07T13:19:10.305Z,2.90
2018-02-07T13:21:38.594Z,3.00
2018-02-07T13:24:06.146Z,2.90
2018-02-07T13:26:33.682Z,3.10
2018-02-07T13:29:02.026Z,3.10
2018-02-07T13:31:30.388Z,3.00
2018-02-07T13:33:57.923Z,2.90
2018-02-07T13:36:26.206Z,3.40
2018-02-07T13:38:53.777Z,3.40
2018-02-07T13:41:21.310Z,3.40
2018-02-07T13:43:49.619Z,3.20
2018-02-07T13:46:17.218Z,3.20
2018-02-07T13:48:44.785Z,3.30
2018-02-07T13:51:12.326Z,3.40
2018-02-07T13:53:39.874Z,3.10
2018-02-07T13:56:07.461Z,3.40
2018-02-07T13:58:35.002Z,3.60
2018-02-07T14:01:02.538Z,3.70
2018-02-07T14:03:30.089Z,3.60
2018-02-07T14:05:57.623Z,3.60
2018-02-07T14:08:25.946Z,3.70
2018-02-07T14:10:53.527Z,3.60
2018-02-07T14:13:21.890Z,3.50
2018-02-07T14:15:49.423Z,3.50
2018-02-07T14:18:16.988Z,3.80
2018-02-07T14:20:44.527Z,3.70
2018-02-07T14:23:12.841Z,3.80
2018-02-07T14:25:40.370Z,3.80
2018-02-07T14:28:07.961Z,3.60
2018-02-07T14:30:35.486Z,3.60
2018-02-07T14:33:03.046Z,3.50
2018-02-07T14:35:30.587Z,3.30
2018-02-07T14:37:58.916Z,3.20
2018-02-07T14:40:26.447Z,3.20
2018-02-07T14:42:54.081Z,3.00
2018-02-07T14:45:22.382Z,3.50
2018-02-07T14:47:49.922Z,3.50
2018-02-07T14:50:18.252Z,3.60
2018-02-07T14:52:45.780Z,3.60
2018-02-07T14:55:14.140Z,3.60
2018-02-07T14:57:42.436Z,3.40
2018-02-07T15:00:09.997Z,3.40
2018-02-07T15:02:37.530Z,3.30
2018-02-07T15:05:05.091Z,3.20
2018-02-07T15:07:33.398Z,2.90
2018-02-07T15:10:00.955Z,2.80
2018-02-07T15:12:28.491Z,2.90
2018-02-07T15:14:56.815Z,2.90
2018-02-07T15:17:24.353Z,2.90
2018-02-07T15:19:51.915Z,2.70
2018-02-07T15:22:19.444Z,2.70
2018-02-07T15:24:47.762Z,2.50
2018-02-07T15:27:15.305Z,2.40
2018-02-07T15:29:42.870Z,2.60
2018-02-07T15:32:10.404Z,2.70
2018-02-07T15:34:38.743Z,2.70
2018-02-07T15:37:06.314Z,2.70
2018-02-07T15:39:33.919Z,2.70
2018-02-07T15:42:01.469Z,2.90
2018-02-07T15:44:29.799Z,2.90
2018-02-07T15:46:57.327Z,2.90
2018-02-07T15:49:24.877Z,2.90
2018-02-07T15:51:52.406Z,2.90
2018-02-07T15:54:19.961Z,2.80
2018-02-07T15:56:47.481Z,2.90
2018-02-07T15:59:15.029Z,2.90
2018-02-07T16:01:42.562Z,2.70
2018-02-07T16:04:10.890Z,2.50
2018-02-07T16:06:38.417Z,2.50
2018-02-07T16:09:06.067Z,2.50
2018-02-07T16:11:34.362Z,2.50
2018-02-07T16:14:01.920Z,2.50
2018-02-07T16:16:29.483Z,2.60
2018-02-07T16:18:57.056Z,2.50
2018-02-07T16:21:24.586Z,2.50
2018-02-07T16:23:52.907Z,2.40
2018-02-07T16:26:20.442Z,2.40
2018-02-07T16:28:47.990Z,2.30
2018-02-07T16:31:15.534Z,2.20
2018-02-07T16:33:43.853Z,2.40
2018-02-07T16:36:11.391Z,2.30
2018-02-07T16:38:38.950Z,2.30
2018-02-07T16:41:06.474Z,2.20
2018-02-07T16:43:34.034Z,2.20
2018-02-07T16:46:01.570Z,2.30
2018-02-07T16:48:29.126Z,2.20
2018-02-07T16:50:56.665Z,2.00
2018-02-07T16:53:24.219Z,1.90
2018-02-07T16:55:51.749Z,2.00
2018-02-07T16:58:20.046Z,1.90
2018-02-07T17:00:47.602Z,1.90
2018-02-07T17:03:15.133Z,1.80
2018-02-07T17:05:43.457Z,1.60
2018-02-07T17:08:10.986Z,1.60
2018-02-07T17:10:39.309Z,1.60
2018-02-07T17:13:06.842Z,1.60
2018-02-07T17:15:34.401Z,1.60
2018-02-07T17:18:01.938Z,1.60
2018-02-07T17:20:30.278Z,1.50
2018-02-07T17:22:57.815Z,1.50
2018-02-07T17:25:25.385Z,1.40
2018-02-07T17:27:52.919Z,1.40
2018-02-07T17:30:20.485Z,1.30
2018-02-07T17:32:48.022Z,1.30
2018-02-07T17:35:15.581Z,1.40
2018-02-07T17:37:43.118Z,1.40
2018-02-07T17:40:11.443Z,1.20
2018-02-07T17:42:38.972Z,1.20
2018-02-07T17:45:06.551Z,1.10
2018-02-07T17:47:34.079Z,1.00
2018-02-07T17:50:02.404Z,0.90
2018-02-07T17:52:30.183Z,0.90
2018-02-07T17:54:57.735Z,0.90
2018-02-07T17:57:25.274Z,0.90
2018-02-07T17:59:52.826Z,0.90
2018-02-07T18:02:20.721Z,0.80
2018-02-07T18:04:49.097Z,0.60
2018-02-07T18:07:16.625Z,0.60
2018-02-07T18:09:44.980Z,0.40
2018-02-07T18:12:12.505Z,0.40
2018-02-07T18:14:40.050Z,0.50
2018-02-07T18:17:07.779Z,0.50
2018-02-07T18:19:36.097Z,0.30
2018-02-07T18:22:03.733Z,0.30
2018-02-07T18:24:31.308Z,0.30
2018-02-07T18:26:58.888Z,0.10
2018-02-07T18:29:27.261Z,0.10
2018-02-07T18:31:54.794Z,0.10
2018-02-07T18:34:22.346Z,0.10
2018-02-07T18:36:49.906Z,-0.10
2018-02-07T18:39:18.235Z,-0.10
2018-02-07T18:41:45.824Z,-0.10
2018-02-07T18:44:14.162Z,-0.10
2018-02-07T18:46:41.850Z,-0.10
2018-02-07T18:49:09.422Z,-0.20
2018-02-07T18:51:36.977Z,-0.40
2018-02-07T18:54:05.323Z,-0.30
2018-02-07T18:56:32.864Z,-0.30
2018-02-07T18:59:00.429Z,-0.30
2018-02-07T19:01:27.957Z,-0.40
2018-02-07T19:03:56.281Z,-0.40
2018-02-07T19:06:23.815Z,-0.40
2018-02-07T19:08:51.357Z,-0.50
2018-02-07T19:11:19.676Z,-0.60
2018-02-07T19:13:47.228Z,-0.60
2018-02-07T19:16:14.795Z,-0.60
2018-02-07T19:18:42.532Z,-0.60
2018-02-07T19:21:10.127Z,-0.60
2018-02-07T19:23:37.662Z,-0.70
2018-02-07T19:26:05.508Z,-0.70
2018-02-07T19:28:33.078Z,-0.70
2018-02-07T19:31:00.645Z,-0.60
2018-02-07T19:33:28.185Z,-0.70
2018-02-07T19:35:55.771Z,-0.70
2018-02-07T19:38:23.428Z,-0.80
2018-02-07T19:40:51.002Z,-0.80
2018-02-07T19:43:18.586Z,-0.80
2018-02-07T19:45:47.010Z,-0.90
2018-02-07T19:48:14.551Z,-0.90
2018-02-07T19:50:42.882Z,-0.90
2018-02-07T19:53:10.422Z,-0.90
2018-02-07T19:55:37.983Z,-0.90
2018-02-07T19:58:05.510Z,-0.90
2018-02-07T20:00:33.858Z,-0.90
2018-02-07T20:03:01.419Z,-0.90
2018-02-07T20:05:29.062Z,-0.90
2018-02-07T20:07:56.593Z,-0.90
2018-02-07T20:10:24.155Z,-0.90
2018-02-07T20:12:51.701Z,-0.80
2018-02-07T20:15:20.026Z,-0.80
2018-02-07T20:17:47.568Z,-0.80
2018-02-07T20:20:15.132Z,-0.90
2018-02-07T20:22:42.678Z,-0.90
2018-02-07T20:25:10.244Z,-0.90
2018-02-07T20:27:37.793Z,-0.90
2018-02-07T20:30:05.486Z,-0.90
2018-02-07T20:32:33.046Z,-0.90
2018-02-07T20:35:00.610Z,-0.90
2018-02-07T20:37:28.154Z,-1.00
2018-02-07T20:39:55.892Z,-0.90
2018-02-07T20:42:23.445Z,-0.90
2018-02-07T20:44:51.050Z,-0.90
2018-02-07T20:47:18.590Z,-0.90
2018-02-07T20:49:46.212Z,-0.90
2018-02-07T20:52:13.797Z,-0.90
2018-02-07T20:54:41.366Z,-1.00
2018-02-07T20:57:08.915Z,-1.00
2018-02-07T20:59:36.492Z,-1.00
2018-02-07T21:02:04.158Z,-1.00
2018-02-07T21:04:31.920Z,-1.00
2018-02-07T21:06:59.462Z,-1.10
2018-02-07T21:09:27.015Z,-1.10
2018-02-07T21:11:54.583Z,-1.00
2018-02-07T21:14:22.295Z,-1.00
2018-02-07T21:16:49.873Z,-1.10
2018-02-07T21:19:17.733Z,-1.10
2018-02-07T21:21:45.356Z,-1.20
2018-02-07T21:24:12.894Z,-1.20
2018-02-07T21:26:40.459Z,-1.20
2018-02-07T21:29:07.997Z,-1.20
2018-02-07T21:31:36.326Z,-1.10
2018-02-07T21:34:03.878Z,-1.10
2018-02-07T21:36:31.442Z,-1.10
2018-02-07T21:38:58.993Z,-1.10
2018-02-07T21:41:26.567Z,-1.20
2018-02-07T21:43:54.134Z,-1.10
2018-02-07T21:46:21.730Z,-1.10
2018-02-07T21:48:50.083Z,-1.20
2018-02-07T21:51:18.458Z,-1.20
2018-02-07T21:53:46.087Z,-1.20
2018-02-07T21:56:13.670Z,-1.20
2018-02-07T21:58:41.211Z,-1.10
2018-02-07T22:01:09.541Z,-1.00
2018-02-07T22:03:37.850Z,-1.00
2018-02-07T22:06:05.449Z,-1.10
2018-02-07T22:08:32.986Z,-1.10
2018-02-07T22:11:00.557Z,-1.10
2018-02-07T22:13:28.108Z,-1.00
2018-02-07T22:15:55.692Z,-1.00
2018-02-07T22:18:23.231Z,-0.90
2018-02-07T22:20:50.845Z,-0.90
2018-02-07T22:23:19.142Z,-1.00
2018-02-07T22:25:46.713Z,-1.00
2018-02-07T22:28:14.309Z,-1.00
2018-02-07T22:30:41.870Z,-0.90
2018-02-07T22:33:09.483Z,-1.00
2018-02-07T22:35:37.802Z,-0.90
2018-02-07T22:38:05.335Z,-0.90
2018-02-07T22:40:32.911Z,-0.90
2018-02-07T22:43:00.454Z,-0.90
2018-02-07T22:45:28.842Z,-0.90
2018-02-07T22:47:56.426Z,-0.90
2018-02-07T22:50:24.901Z,-0.80
2018-02-07T22:52:52.426Z,-0.80
2018-02-07T22:55:20.142Z,-0.80
2018-02-07T22:57:47.682Z,-0.90
2018-02-07T23:00:15.262Z,-0.90
2018-02-07T23:02:43.789Z,-0.90
2018-02-07T23:05:11.349Z,-0.90
2018-02-07T23:07:38.895Z,-0.80
2018-02-07T23:10:06.469Z,-0.70
2018-02-07T23:12:34.002Z,-0.80
2018-02-07T23:15:01.559Z,-0.70
2018-02-07T23:17:29.093Z,-0.60
2018-02-07T23:19:56.632Z,-0.50
2018-02-07T23:22:24.196Z,-0.60
2018-02-07T23:24:51.730Z,-0.60
2018-02-07T23:27:19.286Z,-0.70
2018-02-07T23:29:46.827Z,-0.80
2018-02-07T23:32:15.165Z,-0.70
2018-02-07T23:34:42.714Z,-0.70
2018-02-07T23:37:10.286Z,-0.70
2018-02-07T23:39:37.824Z,-0.70
2018-02-07T23:42:05.379Z,-0.70
2018-02-07T23:44:32.914Z,-0.80
2018-02-07T23:47:00.484Z,-0.70
2018-02-07T23:49:28.024Z,-0.70
2018-02-07T23:51:56.358Z,-0.70
2018-02-07T23:54:23.885Z,-0.70
2018-02-07T23:56:51.438Z,-0.60
2018-02-07T23:59:19.009Z,-0.50
